createdAt,value
2023-01-13T00:01:46.879Z,100739.72
2023-01-13T00:04:59.493Z,100748.13
2023-01-13T00:08:11.784Z,100753.47
2023-01-13T00:11:26.044Z,100755.78
2023-01-13T00:14:38.367Z,100738.31
2023-01-13T00:17:50.944Z,100733.66
2023-01-13T00:21:07.602Z,100735.03
2023-01-13T00:24:20.182Z,100740.31
2023-01-13T00:27:32.932Z,100735.75
2023-01-13T00:30:47.029Z,100735.41
2023-01-13T00:34:00.473Z,100736.91
2023-01-13T00:37:14.682Z,100734.34
2023-01-13T00:40:26.998Z,100733.41
2023-01-13T00:43:39.572Z,100735.47
2023-01-13T00:46:51.935Z,100728.94
2023-01-13T00:50:04.768Z,100731.50
2023-01-13T00:53:17.428Z,100729.53
2023-01-13T00:56:41.737Z,100728.03
2023-01-13T00:59:54.021Z,100736.09
2023-01-13T01:03:12.230Z,100738.78
2023-01-13T01:06:26.063Z,100739.47
2023-01-13T01:09:39.593Z,100742.94
2023-01-13T01:12:52.536Z,100731.75
2023-01-13T01:16:06.936Z,100733.00
2023-01-13T01:19:19.299Z,100723.53
2023-01-13T01:22:31.927Z,100720.59
2023-01-13T01:25:44.208Z,100719.84
2023-01-13T01:28:56.961Z,100707.75
2023-01-13T01:32:09.234Z,100704.19
2023-01-13T01:35:21.793Z,100706.06
2023-01-13T01:38:34.138Z,100703.12
2023-01-13T01:42:06.639Z,100694.00
2023-01-13T01:45:23.550Z,100707.59
2023-01-13T01:48:38.578Z,100696.06
2023-01-13T01:51:56.917Z,100693.19
2023-01-13T01:55:14.641Z,100691.44
2023-01-13T01:58:36.603Z,100684.00
2023-01-13T02:01:49.383Z,100679.69
2023-01-13T02:05:02.112Z,100681.94
2023-01-13T02:08:14.417Z,100679.53
2023-01-13T02:11:57.698Z,100674.13
2023-01-13T02:15:23.700Z,100666.56
2023-01-13T02:19:01.531Z,100674.47
2023-01-13T02:22:28.022Z,100671.41
2023-01-13T02:25:43.635Z,100669.31
2023-01-13T02:29:43.670Z,100665.72
2023-01-13T02:33:11.111Z,100656.78
2023-01-13T02:36:27.623Z,100669.59
2023-01-13T02:39:52.100Z,100656.84
2023-01-13T02:43:38.843Z,100662.56
2023-01-13T02:47:04.630Z,100663.16
2023-01-13T02:50:19.372Z,100662.16
2023-01-13T02:53:37.103Z,100660.13
2023-01-13T02:56:50.902Z,100659.41
2023-01-13T03:00:05.166Z,100656.28
2023-01-13T03:03:17.532Z,100650.41
2023-01-13T03:06:39.305Z,100652.25
2023-01-13T03:10:00.127Z,100649.12
2023-01-13T03:13:40.428Z,100653.69
2023-01-13T03:17:21.625Z,100642.34
2023-01-13T03:20:37.507Z,100643.72
2023-01-13T03:23:58.879Z,100640.72
2023-01-13T03:27:14.385Z,100633.06
2023-01-13T03:30:42.466Z,100625.91
2023-01-13T03:33:56.914Z,100622.25
2023-01-13T03:37:09.411Z,100620.91
2023-01-13T03:40:30.064Z,100620.91
2023-01-13T03:44:09.572Z,100619.00
2023-01-13T03:47:30.646Z,100616.25
2023-01-13T03:50:48.305Z,100615.12
2023-01-13T03:54:08.979Z,100617.72
2023-01-13T03:57:23.746Z,100616.37
2023-01-13T04:00:46.917Z,100624.69
2023-01-13T04:04:07.439Z,100604.25
2023-01-13T04:07:38.513Z,100610.78
2023-01-13T04:11:34.389Z,100608.56
2023-01-13T04:14:46.769Z,100616.28
2023-01-13T04:18:09.077Z,100622.88
2023-01-13T04:21:21.502Z,100619.59
2023-01-13T04:24:34.114Z,100617.50
2023-01-13T04:27:46.440Z,100626.66
2023-01-13T04:30:59.077Z,100620.16
2023-01-13T04:34:12.571Z,100624.41
2023-01-13T04:37:25.238Z,100625.91
2023-01-13T04:40:37.608Z,100621.81
2023-01-13T04:43:50.331Z,100614.81
2023-01-13T04:47:02.718Z,100622.16
2023-01-13T04:50:19.426Z,100632.88
2023-01-13T04:53:31.790Z,100631.88
2023-01-13T04:56:44.400Z,100632.03
2023-01-13T04:59:56.841Z,100635.66
2023-01-13T05:03:09.673Z,100629.91
2023-01-13T05:06:22.091Z,100626.34
2023-01-13T05:09:34.724Z,100625.59
2023-01-13T05:13:05.641Z,100630.00
2023-01-13T05:16:36.789Z,100628.13
2023-01-13T05:19:49.132Z,100634.63
2023-01-13T05:23:20.430Z,100638.78
2023-01-13T05:26:32.753Z,100640.94
2023-01-13T05:29:45.394Z,100646.97
2023-01-13T05:32:59.238Z,100645.34
2023-01-13T05:36:11.888Z,100649.47
2023-01-13T05:39:24.232Z,100638.06
2023-01-13T05:42:55.272Z,100655.22
2023-01-13T05:46:09.095Z,100656.16
2023-01-13T05:49:21.785Z,100654.63
2023-01-13T05:52:34.188Z,100662.00
2023-01-13T05:55:47.214Z,100655.81
2023-01-13T05:58:59.630Z,100653.81
2023-01-13T06:02:12.224Z,100662.09
2023-01-13T06:05:24.828Z,100666.09
2023-01-13T06:08:39.813Z,100674.50
2023-01-13T06:11:52.781Z,100670.72
2023-01-13T06:15:05.652Z,100671.50
2023-01-13T06:18:18.765Z,100672.47
2023-01-13T06:21:33.109Z,100660.94
2023-01-13T06:24:46.264Z,100664.13
2023-01-13T06:27:59.204Z,100666.69
2023-01-13T06:31:12.091Z,100662.38
2023-01-13T06:34:24.688Z,100670.03
2023-01-13T06:37:37.321Z,100671.13
2023-01-13T06:40:49.827Z,100669.47
2023-01-13T06:44:02.472Z,100665.97
2023-01-13T06:47:14.922Z,100671.31
2023-01-13T06:50:29.400Z,100671.16
2023-01-13T06:53:41.774Z,100662.75
2023-01-13T06:56:54.397Z,100673.88
2023-01-13T07:00:07.884Z,100668.72
2023-01-13T07:03:20.663Z,100670.31
2023-01-13T07:06:33.009Z,100672.84
2023-01-13T07:09:45.887Z,100668.91
2023-01-13T07:13:18.836Z,100677.84
2023-01-13T07:16:31.551Z,100667.81
2023-01-13T07:19:43.921Z,100673.53
2023-01-13T07:22:56.727Z,100680.19
2023-01-13T07:26:09.305Z,100678.31
2023-01-13T07:29:22.054Z,100674.44
2023-01-13T07:32:34.473Z,100679.75
2023-01-13T07:35:47.538Z,100676.63
2023-01-13T07:38:59.933Z,100679.16
2023-01-13T07:42:31.352Z,100679.81
2023-01-13T07:45:44.966Z,100686.69
2023-01-13T07:48:57.745Z,100686.69
2023-01-13T07:52:10.126Z,100692.34
2023-01-13T07:55:22.741Z,100692.53
2023-01-13T07:58:35.754Z,100697.31
2023-01-13T08:01:48.525Z,100699.09
2023-01-13T08:05:01.278Z,100708.19
2023-01-13T08:08:13.883Z,100710.97
2023-01-13T08:11:26.543Z,100714.13
2023-01-13T08:14:38.978Z,100714.31
2023-01-13T08:17:51.574Z,100715.53
2023-01-13T08:21:14.361Z,100719.88
2023-01-13T08:24:27.082Z,100705.25
2023-01-13T08:27:39.955Z,100708.09
2023-01-13T08:30:54.091Z,100714.91
2023-01-13T08:34:06.528Z,100718.13
2023-01-13T08:37:19.215Z,100727.12
2023-01-13T08:40:31.834Z,100732.28
2023-01-13T08:43:44.455Z,100732.28
2023-01-13T08:46:57.067Z,100736.72
2023-01-13T08:50:10.487Z,100748.25
2023-01-13T08:53:22.850Z,100747.97
2023-01-13T08:56:35.813Z,100751.50
2023-01-13T08:59:48.245Z,100745.25
2023-01-13T09:03:00.902Z,100753.00
2023-01-13T09:06:13.798Z,100756.28
2023-01-13T09:09:28.968Z,100756.41
2023-01-13T09:13:00.013Z,100760.62
2023-01-13T09:16:12.753Z,100751.53
2023-01-13T09:19:25.798Z,100753.94
2023-01-13T09:22:40.647Z,100743.59
2023-01-13T09:25:53.115Z,100743.28
2023-01-13T09:29:05.906Z,100751.50
2023-01-13T09:32:18.306Z,100749.31
2023-01-13T09:35:31.000Z,100748.22
2023-01-13T09:38:43.346Z,100730.91
2023-01-13T09:42:16.013Z,100740.69
2023-01-13T09:45:42.740Z,100729.28
2023-01-13T09:48:55.352Z,100729.81
2023-01-13T09:52:19.482Z,100728.19
2023-01-13T09:55:36.933Z,100729.69
2023-01-13T09:58:49.466Z,100721.37
2023-01-13T10:02:08.085Z,100715.22
2023-01-13T10:05:39.543Z,100713.78
2023-01-13T10:08:51.985Z,100722.44
2023-01-13T10:12:25.140Z,100720.28
2023-01-13T10:16:06.304Z,100719.22
2023-01-13T10:19:25.654Z,100727.34
2023-01-13T10:22:44.053Z,100721.91
2023-01-13T10:25:59.202Z,100719.97
2023-01-13T10:29:24.798Z,100724.31
2023-01-13T10:32:37.448Z,100727.25
2023-01-13T10:35:59.872Z,100715.09
2023-01-13T10:39:16.854Z,100724.00
2023-01-13T10:42:29.228Z,100710.66
2023-01-13T10:45:41.892Z,100714.16
2023-01-13T10:48:58.015Z,100710.03
2023-01-13T10:52:43.129Z,100705.72
2023-01-13T10:56:03.432Z,100711.63
2023-01-13T10:59:23.580Z,100706.91
2023-01-13T11:02:36.785Z,100699.38
2023-01-13T11:05:57.962Z,100697.34
2023-01-13T11:09:10.403Z,100691.69
2023-01-13T11:12:31.298Z,100689.25
2023-01-13T11:16:07.914Z,100684.78
2023-01-13T11:19:21.242Z,100678.94
2023-01-13T11:22:37.165Z,100680.66
2023-01-13T11:25:53.015Z,100665.38
2023-01-13T11:29:18.583Z,100666.34
2023-01-13T11:32:33.393Z,100664.03
2023-01-13T11:35:51.389Z,100668.09
2023-01-13T11:39:34.457Z,100662.84
2023-01-13T11:42:54.814Z,100655.34
2023-01-13T11:46:08.245Z,100643.13
2023-01-13T11:49:28.635Z,100646.31
2023-01-13T11:53:10.546Z,100640.66
2023-01-13T11:56:44.980Z,100640.50
2023-01-13T12:00:16.481Z,100630.00
2023-01-13T12:03:53.413Z,100614.28
2023-01-13T12:07:13.018Z,100624.69
2023-01-13T12:10:50.712Z,100623.97
2023-01-13T12:14:44.358Z,100615.84
2023-01-13T12:18:02.671Z,100608.66
2023-01-13T12:21:22.811Z,100607.38
2023-01-13T12:24:51.441Z,100600.66
2023-01-13T12:28:11.674Z,100590.53
2023-01-13T12:31:24.358Z,100585.44
2023-01-13T12:34:52.084Z,100579.34
2023-01-13T12:38:19.490Z,100565.84
2023-01-13T12:42:06.346Z,100551.03
2023-01-13T12:45:19.449Z,100558.44
2023-01-13T12:48:59.666Z,100545.34
2023-01-13T12:52:15.655Z,100546.25
2023-01-13T12:55:28.518Z,100547.28
2023-01-13T12:58:41.151Z,100546.16
2023-01-13T13:02:11.898Z,100546.34
2023-01-13T13:05:24.627Z,100552.66
2023-01-13T13:08:55.829Z,100556.94
2023-01-13T13:12:59.639Z,100557.84
2023-01-13T13:16:48.501Z,100563.00
2023-01-13T13:20:01.964Z,100563.09
2023-01-13T13:23:48.539Z,100572.69
2023-01-13T13:27:17.508Z,100585.78
2023-01-13T13:30:30.683Z,100579.13
2023-01-13T13:34:11.441Z,100574.16
2023-01-13T13:37:55.016Z,100574.09
2023-01-13T13:41:37.233Z,100575.28
2023-01-13T13:45:08.112Z,100585.09
2023-01-13T13:48:20.902Z,100589.50
2023-01-13T13:51:46.398Z,100583.00
2023-01-13T13:55:05.499Z,100593.13
2023-01-13T13:58:17.951Z,100599.94
2023-01-13T14:01:34.950Z,100598.78
2023-01-13T14:04:47.694Z,100587.59
2023-01-13T14:08:10.116Z,100574.09
2023-01-13T14:11:29.887Z,100582.25
2023-01-13T14:14:45.806Z,100588.69
2023-01-13T14:18:03.390Z,100592.34
2023-01-13T14:21:19.195Z,100591.12
2023-01-13T14:24:32.017Z,100592.25
2023-01-13T14:27:45.307Z,100595.50
2023-01-13T14:31:06.055Z,100597.06
2023-01-13T14:34:31.123Z,100597.66
2023-01-13T14:37:50.802Z,100601.81
2023-01-13T14:41:19.989Z,100599.94
2023-01-13T14:44:35.028Z,100593.06
2023-01-13T14:47:50.742Z,100596.69
2023-01-13T14:51:06.457Z,100597.38
2023-01-13T14:55:06.874Z,100600.09
2023-01-13T14:58:22.516Z,100597.06
2023-01-13T15:01:39.521Z,100604.84
2023-01-13T15:04:56.674Z,100601.19
2023-01-13T15:08:11.648Z,100613.37
2023-01-13T15:11:26.637Z,100614.44
2023-01-13T15:14:39.056Z,100611.47
2023-01-13T15:17:52.239Z,100611.16
2023-01-13T15:21:04.667Z,100604.09
2023-01-13T15:24:17.314Z,100607.94
2023-01-13T15:27:29.646Z,100607.41
2023-01-13T15:30:42.290Z,100597.44
2023-01-13T15:33:54.752Z,100590.34
2023-01-13T15:37:09.104Z,100592.72
2023-01-13T15:40:31.927Z,100602.91
2023-01-13T15:44:03.327Z,100593.69
2023-01-13T15:47:15.788Z,100592.78
2023-01-13T15:50:28.852Z,100595.94
2023-01-13T15:53:41.227Z,100605.00
2023-01-13T15:56:53.883Z,100601.31
2023-01-13T16:00:13.645Z,100594.47
2023-01-13T16:03:26.243Z,100602.69
2023-01-13T16:06:38.605Z,100603.47
2023-01-13T16:09:51.402Z,100602.59
2023-01-13T16:13:03.806Z,100600.00
2023-01-13T16:16:25.253Z,100606.87
2023-01-13T16:19:37.655Z,100606.81
2023-01-13T16:22:50.266Z,100609.38
2023-01-13T16:26:07.855Z,100598.12
2023-01-13T16:29:20.446Z,100603.22
2023-01-13T16:32:32.782Z,100598.00
2023-01-13T16:36:11.942Z,100593.59
2023-01-13T16:39:22.019Z,100594.75
2023-01-13T16:42:34.629Z,100593.25
2023-01-13T16:45:46.987Z,100593.06
2023-01-13T16:49:02.692Z,100592.38
2023-01-13T16:52:15.207Z,100597.53
2023-01-13T16:55:27.800Z,100596.03
2023-01-13T16:58:40.159Z,100594.88
2023-01-13T17:01:53.551Z,100597.88
2023-01-13T17:05:06.478Z,100598.22
2023-01-13T17:08:19.073Z,100605.56
2023-01-13T17:11:31.452Z,100601.12
2023-01-13T17:14:44.071Z,100588.72
2023-01-13T17:17:57.211Z,100589.81
2023-01-13T17:21:09.844Z,100592.75
2023-01-13T17:24:24.836Z,100583.56
2023-01-13T17:27:37.434Z,100591.53
2023-01-13T17:30:49.784Z,100588.94
2023-01-13T17:34:02.921Z,100580.06
2023-01-13T17:37:15.344Z,100569.81
2023-01-13T17:40:27.957Z,100576.84
2023-01-13T17:43:40.307Z,100568.19
2023-01-13T17:46:52.978Z,100572.50
2023-01-13T17:50:05.780Z,100585.72
2023-01-13T17:53:18.863Z,100585.50
2023-01-13T17:56:31.266Z,100581.19
2023-01-13T17:59:44.047Z,100587.75
2023-01-13T18:02:56.439Z,100583.56
2023-01-13T18:06:13.179Z,100588.06
2023-01-13T18:09:26.361Z,100587.69
2023-01-13T18:12:39.041Z,100578.41
2023-01-13T18:16:01.080Z,100581.97
2023-01-13T18:19:32.411Z,100583.13
2023-01-13T18:23:03.403Z,100592.69
2023-01-13T18:26:36.108Z,100599.19
2023-01-13T18:29:56.616Z,100604.34
2023-01-13T18:33:09.400Z,100624.69
2023-01-13T18:36:21.803Z,100619.94
2023-01-13T18:39:34.699Z,100623.25
2023-01-13T18:42:54.131Z,100617.97
2023-01-13T18:46:06.821Z,100622.47
2023-01-13T18:49:19.222Z,100624.97
2023-01-13T18:52:31.846Z,100628.44
2023-01-13T18:55:44.193Z,100620.78
2023-01-13T18:58:56.920Z,100633.00
2023-01-13T19:02:20.162Z,100629.94
2023-01-13T19:05:34.227Z,100634.50
2023-01-13T19:08:48.425Z,100643.59
2023-01-13T19:12:01.287Z,100645.59
2023-01-13T19:15:13.749Z,100638.59
2023-01-13T19:18:26.512Z,100639.09
2023-01-13T19:21:38.866Z,100646.03
2023-01-13T19:24:51.506Z,100652.53
2023-01-13T19:28:03.970Z,100648.84
2023-01-13T19:31:18.069Z,100644.69
2023-01-13T19:34:30.468Z,100646.63
2023-01-13T19:37:43.681Z,100652.62
2023-01-13T19:40:57.255Z,100655.34
2023-01-13T19:44:29.875Z,100649.91
2023-01-13T19:47:43.940Z,100656.25
2023-01-13T19:50:56.583Z,100666.72
2023-01-13T19:54:08.932Z,100675.50
2023-01-13T19:57:22.452Z,100684.81
2023-01-13T20:00:35.010Z,100693.34
2023-01-13T20:03:47.850Z,100684.53
2023-01-13T20:07:00.967Z,100679.00
2023-01-13T20:10:13.604Z,100691.41
2023-01-13T20:13:25.931Z,100693.53
2023-01-13T20:16:38.589Z,100695.94
2023-01-13T20:19:50.884Z,100698.94
2023-01-13T20:23:03.531Z,100691.84
2023-01-13T20:26:15.868Z,100693.91
2023-01-13T20:29:28.770Z,100689.06
2023-01-13T20:32:41.949Z,100701.47
2023-01-13T20:35:58.330Z,100717.97
2023-01-13T20:39:18.391Z,100722.44
2023-01-13T20:42:44.606Z,100717.94
2023-01-13T20:45:56.987Z,100727.03
2023-01-13T20:49:13.166Z,100728.13
2023-01-13T20:52:25.544Z,100725.41
2023-01-13T20:55:39.887Z,100711.16
2023-01-13T20:58:52.216Z,100711.87
2023-01-13T21:02:06.050Z,100708.56
2023-01-13T21:05:18.365Z,100707.97
2023-01-13T21:08:30.955Z,100702.06
2023-01-13T21:12:01.853Z,100701.09
2023-01-13T21:15:17.573Z,100696.72
2023-01-13T21:18:48.734Z,100704.66
2023-01-13T21:22:01.387Z,100707.81
2023-01-13T21:25:14.054Z,100699.84
2023-01-13T21:28:26.724Z,100702.25
2023-01-13T21:31:39.058Z,100691.84
2023-01-13T21:34:51.938Z,100705.72
2023-01-13T21:38:04.263Z,100698.78
2023-01-13T21:41:36.835Z,100703.53
2023-01-13T21:45:07.702Z,100708.16
2023-01-13T21:48:20.279Z,100703.50
2023-01-13T21:51:33.067Z,100693.09
2023-01-13T21:55:05.798Z,100697.59
2023-01-13T21:58:18.111Z,100689.25
2023-01-13T22:01:30.838Z,100680.78
2023-01-13T22:04:43.555Z,100694.37
2023-01-13T22:07:55.883Z,100678.38
2023-01-13T22:11:08.506Z,100673.97
2023-01-13T22:14:21.337Z,100680.94
2023-01-13T22:17:34.258Z,100682.38
2023-01-13T22:20:46.644Z,100674.09
2023-01-13T22:23:59.386Z,100668.19
2023-01-13T22:27:12.259Z,100663.47
2023-01-13T22:30:25.221Z,100674.19
2023-01-13T22:33:37.959Z,100674.87
2023-01-13T22:36:50.586Z,100658.47
2023-01-13T22:40:06.881Z,100652.59
2023-01-13T22:43:19.480Z,100651.72
2023-01-13T22:46:31.795Z,100667.03
2023-01-13T22:49:47.699Z,100695.25
2023-01-13T22:53:00.036Z,100738.94
2023-01-13T22:56:17.317Z,100764.94
2023-01-13T22:59:31.612Z,100778.84
2023-01-13T23:02:44.281Z,100765.81
2023-01-13T23:05:57.257Z,100759.56
2023-01-13T23:09:10.498Z,100759.09
2023-01-13T23:12:22.835Z,100760.41
2023-01-13T23:15:35.580Z,100764.31
2023-01-13T23:18:48.621Z,100763.53
2023-01-13T23:22:01.298Z,100769.25
2023-01-13T23:25:13.655Z,100770.34
2023-01-13T23:28:28.161Z,100770.91
2023-01-13T23:31:40.714Z,100770.31
2023-01-13T23:34:53.412Z,100755.87
2023-01-13T23:38:05.721Z,100750.91
2023-01-13T23:41:23.028Z,100740.84
2023-01-13T23:44:35.395Z,100730.72
2023-01-13T23:47:48.019Z,100728.56
2023-01-13T23:51:00.925Z,100712.91
2023-01-13T23:54:13.571Z,100704.84
2023-01-13T23:57:25.940Z,100690.97
